Time;durP1;ratioP1;P1;durP2;ratioP2;P2;SDS_P1;SDS_P2;PMS_P1;PMS_P2;Temp;Humidity;BMP_temperature;BMP_pressure;BME280_temperature;BME280_humidity;BME280_pressure;Samples;Min_cycle;Max_cycle;Signal;HPM_P1;HPM_P2
2021/06/23 00:01:01;;;;;;;1.73;1.10;;;;;;;;;;5007693;28;20046;-56
2021/06/23 00:03:27;;;;;;;2.38;2.00;;;;;;;;;;5010758;28;20073;-54
2021/06/23 00:05:54;;;;;;;2.22;1.23;;;;;;;;;;5001165;28;20133;-55
2021/06/23 00:08:21;;;;;;;8.77;1.50;;;;;;;;;;5007978;28;20409;-55
2021/06/23 00:10:49;;;;;;;7.07;1.67;;;;;;;;;;5008074;28;20132;-54
2021/06/23 00:13:16;;;;;;;2.35;1.45;;;;;;;;;;5006218;28;20042;-55
2021/06/23 00:15:43;;;;;;;3.80;1.25;;;;;;;;;;5019241;28;20033;-54
2021/06/23 00:18:10;;;;;;;3.33;1.50;;;;;;;;;;5005297;28;20038;-54
2021/06/23 00:20:37;;;;;;;3.67;1.10;;;;;;;;;;5012957;28;20124;-56
2021/06/23 00:23:04;;;;;;;4.72;1.70;;;;;;;;;;5012013;28;20049;-56
2021/06/23 00:25:31;;;;;;;5.25;1.00;;;;;;;;;;5013165;28;20104;-55
2021/06/23 00:27:57;;;;;;;4.35;1.75;;;;;;;;;;5014423;28;20045;-55
2021/06/23 00:30:24;;;;;;;7.15;1.30;;;;;;;;;;5011711;28;20042;-56
2021/06/23 00:32:52;;;;;;;7.00;1.20;;;;;;;;;;5012490;28;20034;-56
2021/06/23 00:35:19;;;;;;;4.47;1.10;;;;;;;;;;5011180;28;20116;-55
2021/06/23 00:37:46;;;;;;;3.47;1.30;;;;;;;;;;5010115;28;20050;-56
2021/06/23 00:40:13;;;;;;;4.30;1.38;;;;;;;;;;5013436;28;20073;-55
2021/06/23 00:42:40;;;;;;;5.28;1.70;;;;;;;;;;5009504;28;20113;-56
2021/06/23 00:45:09;;;;;;;5.43;1.30;;;;;;;;;;5012843;28;20562;-56
2021/06/23 00:47:35;;;;;;;1.20;1.20;;;;;;;;;;5012234;28;20435;-54
2021/06/23 00:50:06;;;;;;;5.38;1.30;;;;;;;;;;5010470;28;20725;-55
2021/06/23 00:52:33;;;;;;;5.55;1.40;;;;;;;;;;5014199;28;20034;-55
2021/06/23 00:55:00;;;;;;;6.75;1.52;;;;;;;;;;5010729;28;20038;-54
2021/06/23 00:57:30;;;;;;;1.38;1.00;;;;;;;;;;5011734;28;20090;-57
2021/06/23 00:59:57;;;;;;;5.60;1.27;;;;;;;;;;5013433;28;20042;-55
2021/06/23 01:02:23;;;;;;;3.15;1.83;;;;;;;;;;5011822;28;20042;-56
2021/06/23 01:04:51;;;;;;;10.07;1.17;;;;;;;;;;5012514;28;20046;-56
2021/06/23 01:07:18;;;;;;;4.53;1.33;;;;;;;;;;5009641;28;20049;-56
2021/06/23 01:09:45;;;;;;;5.75;2.03;;;;;;;;;;5007725;28;20050;-56
2021/06/23 01:12:21;;;;;;;3.90;1.23;;;;;;;;;;5012845;28;20085;-56
2021/06/23 01:14:48;;;;;;;2.97;1.30;;;;;;;;;;5010871;28;20457;-56
2021/06/23 01:17:15;;;;;;;3.05;1.00;;;;;;;;;;5013074;28;20049;-55
2021/06/23 01:19:43;;;;;;;2.88;1.38;;;;;;;;;;5010007;28;20048;-55
2021/06/23 01:22:14;;;;;;;3.03;1.30;;;;;;;;;;5010807;28;20540;-55
2021/06/23 01:24:41;;;;;;;6.57;1.50;;;;;;;;;;5013221;28;20076;-53
2021/06/23 01:27:08;;;;;;;6.53;2.25;;;;;;;;;;5008561;28;20546;-55
2021/06/23 01:29:35;;;;;;;5.13;1.92;;;;;;;;;;5011049;28;20045;-55
2021/06/23 01:32:03;;;;;;;3.90;1.00;;;;;;;;;;5012025;28;20128;-56
2021/06/23 01:34:29;;;;;;;1.70;1.00;;;;;;;;;;5008579;28;20050;-56
2021/06/23 01:36:56;;;;;;;3.25;1.40;;;;;;;;;;5019916;28;20042;-55
2021/06/23 01:39:23;;;;;;;2.88;1.27;;;;;;;;;;5011464;28;20547;-56
2021/06/23 01:41:50;;;;;;;1.30;1.20;;;;;;;;;;5008762;28;20070;-55
2021/06/23 01:44:17;;;;;;;4.43;1.58;;;;;;;;;;5011848;28;20502;-53
2021/06/23 01:46:43;;;;;;;3.47;1.30;;;;;;;;;;5009873;28;20038;-56
2021/06/23 01:49:10;;;;;;;5.68;1.77;;;;;;;;;;5012390;28;20041;-55
2021/06/23 01:51:37;;;;;;;2.33;1.27;;;;;;;;;;5008703;28;20041;-56
2021/06/23 01:54:04;;;;;;;3.08;1.38;;;;;;;;;;5011620;28;20042;-55
2021/06/23 01:56:31;;;;;;;4.15;1.48;;;;;;;;;;5012729;28;20073;-56
2021/06/23 01:58:58;;;;;;;2.72;1.70;;;;;;;;;;5008123;28;20069;-56
2021/06/23 02:01:25;;;;;;;4.25;1.45;;;;;;;;;;5011450;28;20092;-56
2021/06/23 02:03:55;;;;;;;6.82;1.25;;;;;;;;;;5010070;28;20068;-57
2021/06/23 02:06:40;;;;;;;3.85;1.20;;;;;;;;;;5009277;28;20065;-56
2021/06/23 02:09:25;;;;;;;5.38;2.13;;;;;;;;;;5012242;28;20096;-56
2021/06/23 02:12:14;;;;;;;5.75;1.30;;;;;;;;;;5009204;28;20552;-54
2021/06/23 02:14:42;;;;;;;2.60;2.22;;;;;;;;;;5010943;28;20474;-57
2021/06/23 02:17:11;;;;;;;4.38;1.13;;;;;;;;;;5011023;28;20494;-55
2021/06/23 02:19:42;;;;;;;4.47;1.17;;;;;;;;;;5009200;28;20092;-54
2021/06/23 02:22:10;;;;;;;3.17;1.65;;;;;;;;;;5015590;28;20088;-57
2021/06/23 02:24:36;;;;;;;4.43;1.27;;;;;;;;;;5012035;28;20103;-55
2021/06/23 02:27:03;;;;;;;2.08;1.70;;;;;;;;;;5010452;28;20069;-56
2021/06/23 02:29:31;;;;;;;2.58;1.52;;;;;;;;;;5012601;28;20046;-56
2021/06/23 02:31:58;;;;;;;6.28;1.38;;;;;;;;;;5009092;28;20084;-53
2021/06/23 02:34:25;;;;;;;7.13;1.58;;;;;;;;;;5009148;28;20120;-56
2021/06/23 02:36:52;;;;;;;2.83;1.30;;;;;;;;;;5011907;28;20491;-52
2021/06/23 02:39:18;;;;;;;2.88;1.10;;;;;;;;;;5007480;28;20080;-56
2021/06/23 02:41:45;;;;;;;5.13;1.02;;;;;;;;;;5011639;28;20069;-55
2021/06/23 02:44:12;;;;;;;3.08;1.52;;;;;;;;;;5008072;28;20066;-57
2021/06/23 02:46:39;;;;;;;1.92;1.15;;;;;;;;;;5007005;28;20070;-57
2021/06/23 02:49:06;;;;;;;4.00;1.23;;;;;;;;;;5012030;28;20036;-57
2021/06/23 02:51:37;;;;;;;5.18;1.40;;;;;;;;;;5008995;28;20030;-57
2021/06/23 02:54:05;;;;;;;2.92;1.20;;;;;;;;;;5010678;28;20093;-56
2021/06/23 02:56:32;;;;;;;3.80;1.52;;;;;;;;;;5008795;28;20042;-56
2021/06/23 02:59:00;;;;;;;3.20;1.38;;;;;;;;;;5005152;28;20069;-56
2021/06/23 03:01:26;;;;;;;3.22;1.00;;;;;;;;;;5011568;28;20088;-57
2021/06/23 03:03:53;;;;;;;1.95;1.20;;;;;;;;;;5008581;28;20092;-57
2021/06/23 03:06:20;;;;;;;3.00;1.33;;;;;;;;;;5010542;28;20045;-56
2021/06/23 03:08:47;;;;;;;3.53;1.67;;;;;;;;;;5011409;28;20076;-57
2021/06/23 03:11:13;;;;;;;4.63;1.63;;;;;;;;;;5008033;28;20129;-55
2021/06/23 03:13:40;;;;;;;2.92;1.50;;;;;;;;;;5011459;28;20077;-55
2021/06/23 03:16:07;;;;;;;3.20;1.33;;;;;;;;;;5008415;28;20045;-56
2021/06/23 03:18:33;;;;;;;3.97;1.52;;;;;;;;;;5009215;28;20038;-56
2021/06/23 03:21:02;;;;;;;3.42;1.27;;;;;;;;;;5010352;28;20050;-58
2021/06/23 03:23:29;;;;;;;4.15;1.73;;;;;;;;;;5009956;28;20038;-56
2021/06/23 03:25:56;;;;;;;6.15;1.60;;;;;;;;;;5010522;28;20129;-57
2021/06/23 03:28:23;;;;;;;3.20;1.50;;;;;;;;;;5008491;28;20038;-58
2021/06/23 03:30:50;;;;;;;2.30;2.10;;;;;;;;;;5008114;28;20562;-55
2021/06/23 03:33:17;;;;;;;1.88;1.30;;;;;;;;;;5010824;28;20117;-58
2021/06/23 03:35:44;;;;;;;2.45;1.45;;;;;;;;;;5007508;28;20038;-57
2021/06/23 03:38:11;;;;;;;2.97;1.30;;;;;;;;;;5011363;28;20042;-57
2021/06/23 03:40:38;;;;;;;2.72;1.83;;;;;;;;;;5006915;28;20077;-57
2021/06/23 03:43:05;;;;;;;5.13;1.30;;;;;;;;;;5008826;28;20096;-57
2021/06/23 03:45:41;;;;;;;3.42;1.27;;;;;;;;;;5010606;28;20045;-57
2021/06/23 03:48:09;;;;;;;13.80;2.00;;;;;;;;;;5006927;28;20042;-58
2021/06/23 03:50:35;;;;;;;3.80;1.33;;;;;;;;;;5008962;28;20030;-55
2021/06/23 03:53:03;;;;;;;4.95;1.40;;;;;;;;;;5007177;28;20157;-58
2021/06/23 03:55:29;;;;;;;5.25;1.38;;;;;;;;;;5007674;28;20053;-58
2021/06/23 03:57:57;;;;;;;2.22;1.15;;;;;;;;;;5000765;28;20162;-57
2021/06/23 04:00:25;;;;;;;4.35;1.38;;;;;;;;;;5001997;28;20536;-56
2021/06/23 04:02:53;;;;;;;3.25;1.50;;;;;;;;;;4990871;28;20050;-56
2021/06/23 04:05:20;;;;;;;4.47;1.58;;;;;;;;;;5008461;28;20100;-58
2021/06/23 04:07:47;;;;;;;5.15;1.33;;;;;;;;;;5006288;28;20098;-58
2021/06/23 04:10:15;;;;;;;10.25;1.98;;;;;;;;;;5009043;28;20092;-56
2021/06/23 04:12:42;;;;;;;4.15;1.80;;;;;;;;;;5007645;28;20033;-57
2021/06/23 04:15:10;;;;;;;3.60;2.10;;;;;;;;;;5005007;28;20125;-58
2021/06/23 04:17:36;;;;;;;9.80;2.33;;;;;;;;;;5010454;28;20349;-58
2021/06/23 04:20:05;;;;;;;10.30;2.65;;;;;;;;;;5008282;28;20520;-57
2021/06/23 04:22:32;;;;;;;11.82;1.27;;;;;;;;;;5009320;28;20088;-57
2021/06/23 04:24:58;;;;;;;5.93;1.65;;;;;;;;;;5007605;28;20042;-59
2021/06/23 04:27:25;;;;;;;4.60;1.77;;;;;;;;;;5006775;28;20467;-57
2021/06/23 04:29:52;;;;;;;3.92;1.50;;;;;;;;;;5008946;28;20696;-58
2021/06/23 04:32:19;;;;;;;7.95;1.88;;;;;;;;;;5005539;28;20068;-57
2021/06/23 04:34:45;;;;;;;6.55;1.92;;;;;;;;;;5027130;28;20454;-58
2021/06/23 04:37:12;;;;;;;4.43;2.97;;;;;;;;;;5008857;28;20482;-56
2021/06/23 04:39:39;;;;;;;3.90;1.38;;;;;;;;;;5007231;28;20069;-57
2021/06/23 04:42:06;;;;;;;4.15;1.63;;;;;;;;;;5008921;28;20046;-57
2021/06/23 04:44:34;;;;;;;2.15;1.73;;;;;;;;;;5007531;28;20045;-57
2021/06/23 04:47:01;;;;;;;3.83;1.45;;;;;;;;;;5009757;28;20113;-58
2021/06/23 04:49:28;;;;;;;2.42;1.25;;;;;;;;;;5007730;28;20037;-57
2021/06/23 04:51:54;;;;;;;2.80;1.52;;;;;;;;;;5006689;28;20125;-57
2021/06/23 04:54:21;;;;;;;2.35;1.30;;;;;;;;;;5010668;28;20065;-56
2021/06/23 04:56:48;;;;;;;4.82;2.30;;;;;;;;;;5007781;28;20042;-57
2021/06/23 04:59:15;;;;;;;4.32;1.63;;;;;;;;;;5009428;28;20038;-58
2021/06/23 05:01:41;;;;;;;3.53;1.88;;;;;;;;;;5014179;28;20042;-56
2021/06/23 05:04:08;;;;;;;2.58;1.65;;;;;;;;;;5020947;28;20414;-57
2021/06/23 05:06:35;;;;;;;3.50;1.52;;;;;;;;;;5013303;28;20061;-58
2021/06/23 05:09:05;;;;;;;6.93;1.33;;;;;;;;;;5013215;28;20069;-57
2021/06/23 05:11:33;;;;;;;3.83;1.40;;;;;;;;;;5011455;28;20046;-57
2021/06/23 05:14:01;;;;;;;2.72;1.52;;;;;;;;;;5007018;28;20125;-58
2021/06/23 05:16:29;;;;;;;2.88;1.25;;;;;;;;;;5008685;28;20120;-57
2021/06/23 05:18:57;;;;;;;5.43;1.35;;;;;;;;;;5013247;28;20069;-58
2021/06/23 05:21:24;;;;;;;2.97;1.83;;;;;;;;;;5012035;28;20413;-61
2021/06/23 05:23:55;;;;;;;4.05;1.63;;;;;;;;;;5009956;28;20541;-60
2021/06/23 05:26:23;;;;;;;4.68;2.03;;;;;;;;;;5012838;28;20140;-61
2021/06/23 05:28:49;;;;;;;1.90;1.20;;;;;;;;;;5011700;28;20088;-60
2021/06/23 05:31:16;;;;;;;6.82;1.35;;;;;;;;;;5012593;28;20034;-59
2021/06/23 05:33:43;;;;;;;4.53;1.80;;;;;;;;;;5009300;28;20038;-60
2021/06/23 05:36:10;;;;;;;8.43;1.60;;;;;;;;;;5010657;28;20046;-60
2021/06/23 05:38:36;;;;;;;1.30;1.20;;;;;;;;;;5013598;28;20371;-60
2021/06/23 05:41:03;;;;;;;3.47;1.10;;;;;;;;;;5012275;28;20073;-60
2021/06/23 05:43:30;;;;;;;2.80;1.52;;;;;;;;;;5011510;28;20121;-60
2021/06/23 05:45:57;;;;;;;3.90;1.75;;;;;;;;;;5010567;28;20129;-60
2021/06/23 05:48:24;;;;;;;5.40;2.28;;;;;;;;;;5011726;28;20108;-60
2021/06/23 05:50:51;;;;;;;2.55;1.48;;;;;;;;;;5013214;28;20121;-61
2021/06/23 05:53:17;;;;;;;6.22;1.88;;;;;;;;;;5011315;28;20061;-60
2021/06/23 05:55:44;;;;;;;2.00;1.30;;;;;;;;;;5010983;28;20104;-60
2021/06/23 05:58:11;;;;;;;3.13;1.45;;;;;;;;;;5012676;28;20038;-60
2021/06/23 06:00:38;;;;;;;10.15;1.92;;;;;;;;;;5008896;28;20149;-58
2021/06/23 06:03:05;;;;;;;7.93;1.55;;;;;;;;;;5016588;28;20108;-60
2021/06/23 06:05:32;;;;;;;3.70;1.92;;;;;;;;;;5004685;28;20129;-59
2021/06/23 06:07:59;;;;;;;3.92;1.10;;;;;;;;;;5007096;28;20073;-59
2021/06/23 06:10:27;;;;;;;5.10;1.08;;;;;;;;;;5010360;28;20065;-59
2021/06/23 06:12:58;;;;;;;4.37;1.80;;;;;;;;;;5007604;28;20053;-59
2021/06/23 06:15:25;;;;;;;3.78;1.33;;;;;;;;;;5010555;28;20291;-60
2021/06/23 06:17:52;;;;;;;4.05;2.17;;;;;;;;;;5008206;28;20073;-59
2021/06/23 06:20:19;;;;;;;6.97;2.03;;;;;;;;;;5007687;28;20042;-59
2021/06/23 06:22:45;;;;;;;6.18;1.42;;;;;;;;;;5012258;28;20117;-59
2021/06/23 06:25:13;;;;;;;3.33;1.33;;;;;;;;;;5007432;28;20111;-59
2021/06/23 06:27:40;;;;;;;4.00;1.10;;;;;;;;;;5012411;28;20096;-60
2021/06/23 06:30:07;;;;;;;4.13;1.55;;;;;;;;;;5007941;28;20037;-59
2021/06/23 06:32:34;;;;;;;4.72;1.08;;;;;;;;;;5009697;28;20042;-59
2021/06/23 06:35:01;;;;;;;4.15;1.83;;;;;;;;;;5010946;28;20063;-59
2021/06/23 06:37:28;;;;;;;3.25;1.10;;;;;;;;;;5007160;28;20096;-59
2021/06/23 06:39:55;;;;;;;4.40;1.23;;;;;;;;;;5011539;28;20045;-59
2021/06/23 06:42:22;;;;;;;2.60;1.10;;;;;;;;;;5009167;28;20045;-58
2021/06/23 06:44:48;;;;;;;3.85;1.05;;;;;;;;;;5009169;28;20057;-59
2021/06/23 06:47:15;;;;;;;3.00;1.10;;;;;;;;;;5010105;28;20731;-59
2021/06/23 06:49:42;;;;;;;7.05;1.52;;;;;;;;;;5008500;28;20038;-60
2021/06/23 06:52:09;;;;;;;5.55;1.30;;;;;;;;;;5010075;28;20038;-60
2021/06/23 06:54:36;;;;;;;3.88;1.52;;;;;;;;;;5009401;28;20103;-59
2021/06/23 06:57:02;;;;;;;4.18;1.52;;;;;;;;;;5001232;28;20041;-59
2021/06/23 06:59:30;;;;;;;6.30;1.00;;;;;;;;;;5010678;28;20935;-60
2021/06/23 07:01:57;;;;;;;7.13;1.27;;;;;;;;;;5006657;28;20545;-59
2021/06/23 07:04:23;;;;;;;3.55;1.25;;;;;;;;;;5009302;28;20072;-59
2021/06/23 07:06:50;;;;;;;2.88;0.90;;;;;;;;;;5010804;28;20074;-60
2021/06/23 07:09:19;;;;;;;3.83;0.90;;;;;;;;;;5006336;28;20482;-60
2021/06/23 07:11:47;;;;;;;3.00;0.95;;;;;;;;;;5010405;28;20058;-60
2021/06/23 07:14:15;;;;;;;4.63;0.88;;;;;;;;;;5008132;28;20427;-59
2021/06/23 07:16:42;;;;;;;3.15;1.05;;;;;;;;;;5008096;28;20042;-59
2021/06/23 07:19:10;;;;;;;6.57;1.20;;;;;;;;;;5009079;28;20054;-58
2021/06/23 07:21:37;;;;;;;4.90;1.33;;;;;;;;;;5008933;28;20046;-59
2021/06/23 07:24:04;;;;;;;2.88;1.08;;;;;;;;;;5011198;28;20061;-59
2021/06/23 07:26:31;;;;;;;5.63;1.00;;;;;;;;;;5007866;28;20045;-60
2021/06/23 07:29:01;;;;;;;3.10;1.33;;;;;;;;;;5010052;28;20105;-58
2021/06/23 07:36:32;;;;;;;4.57;0.70;;;;;;;;;;5008386;28;20069;-59
2021/06/23 07:36:55;;;;;;;7.90;0.90;;;;;;;;;;4988580;28;20085;-60
2021/06/23 07:39:22;;;;;;;6.20;1.05;;;;;;;;;;5010135;28;20042;-59
2021/06/23 07:41:49;;;;;;;6.63;1.02;;;;;;;;;;5007547;28;20065;-60
2021/06/23 07:44:19;;;;;;;6.15;1.00;;;;;;;;;;5009447;28;20046;-59
2021/06/23 07:46:49;;;;;;;2.13;1.25;;;;;;;;;;5010822;28;20040;-60
2021/06/23 07:49:17;;;;;;;4.97;0.90;;;;;;;;;;5019932;28;20061;-59
2021/06/23 07:54:18;;;;;;;3.00;0.77;;;;;;;;;;5008246;28;20038;-59
2021/06/23 08:10:41;;;;;;;3.88;0.70;;;;;;;;;;5005360;28;20069;-60
2021/06/23 08:13:08;;;;;;;4.45;0.80;;;;;;;;;;5014201;28;20398;-60
2021/06/23 08:15:37;;;;;;;4.70;0.70;;;;;;;;;;5009848;28;20726;-60
2021/06/23 08:18:05;;;;;;;1.85;0.75;;;;;;;;;;5008486;28;20137;-60
2021/06/23 08:20:32;;;;;;;3.63;0.80;;;;;;;;;;5008965;28;20112;-60
2021/06/23 08:22:59;;;;;;;3.03;0.80;;;;;;;;;;5006180;28;20113;-60
2021/06/23 08:25:26;;;;;;;2.35;0.90;;;;;;;;;;5006989;28;20072;-60
2021/06/23 08:27:53;;;;;;;1.90;0.88;;;;;;;;;;5009945;28;20084;-60
2021/06/23 08:30:20;;;;;;;4.53;1.25;;;;;;;;;;5004818;28;20431;-60
2021/06/23 08:32:48;;;;;;;5.53;1.42;;;;;;;;;;5009909;28;20038;-59
2021/06/23 08:35:15;;;;;;;3.55;0.73;;;;;;;;;;5006660;28;20069;-60
2021/06/23 08:37:42;;;;;;;2.75;0.73;;;;;;;;;;5008959;28;20029;-59
2021/06/23 08:40:12;;;;;;;3.45;0.95;;;;;;;;;;5014395;28;20042;-61
2021/06/23 08:42:39;;;;;;;3.20;0.60;;;;;;;;;;5012219;28;20033;-60
2021/06/23 08:45:07;;;;;;;3.85;0.60;;;;;;;;;;5010178;28;20077;-60
2021/06/23 08:47:38;;;;;;;3.80;0.80;;;;;;;;;;5012508;28;20045;-60
2021/06/23 08:50:05;;;;;;;3.88;0.60;;;;;;;;;;5011068;28;20565;-60
2021/06/23 08:52:32;;;;;;;2.75;0.70;;;;;;;;;;5013986;28;20080;-59
2021/06/23 08:54:58;;;;;;;2.03;0.55;;;;;;;;;;5009870;28;20054;-60
2021/06/23 08:57:25;;;;;;;4.10;0.70;;;;;;;;;;5011043;28;20041;-60
2021/06/23 08:59:53;;;;;;;3.72;0.60;;;;;;;;;;5010887;28;20077;-61
2021/06/23 09:02:20;;;;;;;1.52;0.70;;;;;;;;;;5001494;28;20104;-60
2021/06/23 09:04:56;;;;;;;8.05;0.60;;;;;;;;;;5014016;28;20038;-60
2021/06/23 09:07:41;;;;;;;3.92;0.60;;;;;;;;;;5023117;28;20453;-59
2021/06/23 09:10:28;;;;;;;1.25;0.70;;;;;;;;;;5009207;28;20544;-60
2021/06/23 09:13:01;;;;;;;5.43;1.33;;;;;;;;;;5012203;28;20095;-60
2021/06/23 09:15:41;;;;;;;4.70;0.70;;;;;;;;;;5011885;28;20678;-60
2021/06/23 09:18:12;;;;;;;10.10;0.60;;;;;;;;;;5011158;28;20038;-61
2021/06/23 09:20:39;;;;;;;1.00;0.60;;;;;;;;;;5010525;28;20112;-60
2021/06/23 09:23:06;;;;;;;3.03;0.60;;;;;;;;;;5010285;28;20038;-60
2021/06/23 09:25:35;;;;;;;5.82;0.55;;;;;;;;;;5011448;28;20445;-59
2021/06/23 09:28:03;;;;;;;4.97;0.50;;;;;;;;;;5013049;28;20038;-60
2021/06/23 09:30:37;;;;;;;1.92;0.68;;;;;;;;;;5010969;28;20042;-60
2021/06/23 09:33:14;;;;;;;2.42;0.65;;;;;;;;;;5011695;28;20038;-59
2021/06/23 09:35:56;;;;;;;0.65;0.50;;;;;;;;;;5010446;28;20040;-58
2021/06/23 09:38:44;;;;;;;4.30;0.60;;;;;;;;;;5009403;28;20038;-60
2021/06/23 09:41:20;;;;;;;1.38;0.60;;;;;;;;;;5009288;28;20093;-60
2021/06/23 09:43:58;;;;;;;3.83;0.60;;;;;;;;;;5010033;28;20461;-61
2021/06/23 09:46:28;;;;;;;2.85;0.60;;;;;;;;;;5008139;28;20134;-60
2021/06/23 09:49:05;;;;;;;4.43;0.60;;;;;;;;;;5011365;28;20050;-59
2021/06/23 09:51:41;;;;;;;4.72;0.60;;;;;;;;;;5009583;28;20084;-60
2021/06/23 09:54:08;;;;;;;2.58;0.50;;;;;;;;;;5007538;28;20033;-60
2021/06/23 09:56:54;;;;;;;3.85;0.60;;;;;;;;;;5011030;28;20042;-61
2021/06/23 09:59:31;;;;;;;3.40;0.50;;;;;;;;;;5007162;28;20042;-61
2021/06/23 10:01:58;;;;;;;4.68;0.60;;;;;;;;;;4994849;28;20097;-61
2021/06/23 10:04:32;;;;;;;1.50;0.50;;;;;;;;;;5011878;28;20074;-61
2021/06/23 10:06:59;;;;;;;7.70;0.75;;;;;;;;;;5010111;28;20450;-61
2021/06/23 10:09:29;;;;;;;3.72;0.60;;;;;;;;;;5009958;28;20037;-61
2021/06/23 10:12:02;;;;;;;4.88;0.60;;;;;;;;;;5009131;28;20133;-58
2021/06/23 10:14:32;;;;;;;2.97;0.43;;;;;;;;;;5007848;28;20057;-61
2021/06/23 10:17:03;;;;;;;4.65;0.50;;;;;;;;;;5012773;28;20061;-61
2021/06/23 10:19:30;;;;;;;2.30;0.30;;;;;;;;;;5007247;28;20037;-61
2021/06/23 10:22:01;;;;;;;4.10;1.10;;;;;;;;;;5006601;28;20335;-61
2021/06/23 10:24:49;;;;;;;1.60;0.30;;;;;;;;;;5012390;28;20100;-61
2021/06/23 10:27:17;;;;;;;4.32;0.40;;;;;;;;;;5007617;28;20096;-61
2021/06/23 10:29:44;;;;;;;1.23;0.35;;;;;;;;;;5017269;28;20521;-56
2021/06/23 10:32:11;;;;;;;1.17;0.40;;;;;;;;;;5009773;28;20100;-61
2021/06/23 10:34:38;;;;;;;2.05;0.40;;;;;;;;;;5006817;28;20073;-60
2021/06/23 10:37:06;;;;;;;3.53;0.30;;;;;;;;;;5010715;28;20156;-60
2021/06/23 10:39:33;;;;;;;2.75;0.50;;;;;;;;;;5008130;28;20122;-60
2021/06/23 10:42:02;;;;;;;0.50;0.32;;;;;;;;;;5000436;28;20646;-61
2021/06/23 10:44:35;;;;;;;1.20;0.30;;;;;;;;;;5007715;28;20135;-61
2021/06/23 10:47:03;;;;;;;1.00;0.30;;;;;;;;;;5007088;28;20050;-60
2021/06/23 10:49:47;;;;;;;3.95;0.65;;;;;;;;;;5011489;28;20128;-61
2021/06/23 10:52:19;;;;;;;1.00;0.28;;;;;;;;;;5008387;28;20412;-61
2021/06/23 10:54:50;;;;;;;1.27;0.30;;;;;;;;;;5009894;28;20073;-60
2021/06/23 10:57:25;;;;;;;2.30;0.20;;;;;;;;;;5011091;28;20045;-61
2021/06/23 10:59:52;;;;;;;0.43;0.25;;;;;;;;;;5004356;28;20049;-61
2021/06/23 11:02:27;;;;;;;1.48;0.30;;;;;;;;;;5007156;28;20495;-61
2021/06/23 11:05:05;;;;;;;0.30;0.20;;;;;;;;;;5009269;28;20045;-60
2021/06/23 11:07:36;;;;;;;4.38;0.40;;;;;;;;;;5008046;28;20044;-60
2021/06/23 11:10:12;;;;;;;3.63;0.30;;;;;;;;;;5011512;28;20609;-60
2021/06/23 11:12:45;;;;;;;3.28;0.20;;;;;;;;;;5007778;28;20049;-60
2021/06/23 11:15:17;;;;;;;1.48;0.20;;;;;;;;;;5002429;28;20037;-61
2021/06/23 11:17:45;;;;;;;1.35;0.30;;;;;;;;;;5011205;28;20037;-61
2021/06/23 11:20:21;;;;;;;4.88;0.30;;;;;;;;;;5008558;28;20486;-60
2021/06/23 11:22:49;;;;;;;2.78;0.30;;;;;;;;;;5009521;28;20096;-60
2021/06/23 11:25:22;;;;;;;1.88;0.60;;;;;;;;;;5014976;28;20045;-60
2021/06/23 11:28:07;;;;;;;0.43;0.22;;;;;;;;;;5014996;28;20068;-61
2021/06/23 11:30:35;;;;;;;4.97;0.30;;;;;;;;;;5009785;28;20045;-60
2021/06/23 11:33:37;;;;;;;0.43;0.20;;;;;;;;;;5009304;28;20038;-59
2021/06/23 11:36:07;;;;;;;1.42;0.20;;;;;;;;;;4947267;29;20047;-60
2021/06/23 11:38:35;;;;;;;1.33;0.20;;;;;;;;;;5000550;28;20364;-58
2021/06/23 11:41:03;;;;;;;1.20;0.25;;;;;;;;;;5007902;28;20044;-58
2021/06/23 11:43:30;;;;;;;0.77;0.20;;;;;;;;;;5007380;28;20438;-59
2021/06/23 11:45:57;;;;;;;1.92;0.20;;;;;;;;;;5005399;28;20074;-58
2021/06/23 11:48:30;;;;;;;0.88;0.30;;;;;;;;;;5003321;28;20128;-57
2021/06/23 11:50:57;;;;;;;0.20;0.20;;;;;;;;;;5009571;28;20065;-57
2021/06/23 11:53:24;;;;;;;0.85;0.20;;;;;;;;;;5008834;28;20065;-58
2021/06/23 11:55:52;;;;;;;0.85;0.30;;;;;;;;;;5009492;28;20037;-58
2021/06/23 11:58:19;;;;;;;0.45;0.20;;;;;;;;;;5011210;28;20045;-58
2021/06/23 12:00:46;;;;;;;1.10;0.20;;;;;;;;;;5007917;28;20081;-58
2021/06/23 12:03:17;;;;;;;2.10;0.20;;;;;;;;;;5004240;28;20125;-58
2021/06/23 12:05:44;;;;;;;1.88;0.20;;;;;;;;;;5009982;28;20414;-54
2021/06/23 12:08:12;;;;;;;0.70;0.20;;;;;;;;;;5007420;28;20061;-57
2021/06/23 12:10:39;;;;;;;1.83;0.20;;;;;;;;;;5010296;28;20044;-58
2021/06/23 12:13:06;;;;;;;0.70;0.30;;;;;;;;;;5008940;28;20057;-58
2021/06/23 12:15:33;;;;;;;2.95;0.20;;;;;;;;;;5009028;28;20100;-58
2021/06/23 12:18:02;;;;;;;2.28;0.20;;;;;;;;;;5010422;28;20077;-58
2021/06/23 12:20:30;;;;;;;0.40;0.20;;;;;;;;;;5007056;28;20054;-57
2021/06/23 12:23:02;;;;;;;5.07;0.30;;;;;;;;;;5010927;28;20050;-58
2021/06/23 12:25:30;;;;;;;2.05;0.20;;;;;;;;;;5007407;28;20046;-58
2021/06/23 12:27:58;;;;;;;0.93;0.30;;;;;;;;;;5009445;28;20095;-57
2021/06/23 12:30:28;;;;;;;2.40;0.20;;;;;;;;;;5008568;28;20030;-55
2021/06/23 12:32:56;;;;;;;6.22;0.30;;;;;;;;;;5005659;28;20092;-48
2021/06/23 12:35:23;;;;;;;0.90;0.43;;;;;;;;;;5007927;28;20117;-45
2021/06/23 12:37:51;;;;;;;0.95;0.30;;;;;;;;;;5009214;28;20046;-44
2021/06/23 12:40:18;;;;;;;2.03;0.30;;;;;;;;;;5009240;28;20520;-46
2021/06/23 12:42:44;;;;;;;0.50;0.30;;;;;;;;;;5007831;28;20512;-48
2021/06/23 12:45:11;;;;;;;0.88;0.30;;;;;;;;;;5002415;28;20125;-46
2021/06/23 12:47:38;;;;;;;4.07;0.30;;;;;;;;;;5006804;28;20544;-45
2021/06/23 12:50:07;;;;;;;2.38;0.30;;;;;;;;;;5009661;28;20038;-46
2021/06/23 12:52:33;;;;;;;6.13;0.30;;;;;;;;;;5009072;28;20037;-46
2021/06/23 12:55:00;;;;;;;1.92;0.30;;;;;;;;;;5009615;28;20046;-46
2021/06/23 12:57:27;;;;;;;4.03;0.30;;;;;;;;;;5008629;28;20482;-44
2021/06/23 12:59:54;;;;;;;3.65;0.55;;;;;;;;;;5007259;28;20070;-46
2021/06/23 13:02:20;;;;;;;1.60;0.43;;;;;;;;;;5009990;28;20558;-47
2021/06/23 13:04:47;;;;;;;2.50;0.40;;;;;;;;;;5007861;28;20478;-46
2021/06/23 13:07:14;;;;;;;1.33;0.30;;;;;;;;;;5009675;28;20533;-46
2021/06/23 13:09:41;;;;;;;2.10;0.30;;;;;;;;;;5005703;28;20071;-47
2021/06/23 13:12:07;;;;;;;3.70;0.40;;;;;;;;;;5005302;28;20085;-47
2021/06/23 13:14:34;;;;;;;2.35;0.60;;;;;;;;;;5010129;28;20074;-44
2021/06/23 13:17:01;;;;;;;2.20;0.32;;;;;;;;;;5008643;28;20093;-45
2021/06/23 13:19:28;;;;;;;4.65;0.40;;;;;;;;;;5007901;28;20050;-44
2021/06/23 13:21:55;;;;;;;3.80;0.30;;;;;;;;;;5005920;28;20117;-44
2021/06/23 13:24:22;;;;;;;5.65;0.30;;;;;;;;;;5009601;28;20077;-44
2021/06/23 13:26:49;;;;;;;0.90;0.40;;;;;;;;;;5013534;28;20501;-44
2021/06/23 13:29:15;;;;;;;3.80;0.30;;;;;;;;;;5010799;28;20084;-46
2021/06/23 13:31:42;;;;;;;4.80;0.70;;;;;;;;;;5012567;28;20571;-46
2021/06/23 13:34:10;;;;;;;1.83;0.40;;;;;;;;;;5010937;28;20552;-47
2021/06/23 13:36:37;;;;;;;7.28;0.50;;;;;;;;;;5008903;28;20072;-44
2021/06/23 13:39:04;;;;;;;7.93;0.73;;;;;;;;;;5013551;28;20714;-46
2021/06/23 13:41:31;;;;;;;9.52;0.57;;;;;;;;;;5010925;28;20034;-46
2021/06/23 13:43:58;;;;;;;4.35;0.40;;;;;;;;;;5006923;28;20062;-46
2021/06/23 13:46:25;;;;;;;2.95;0.60;;;;;;;;;;5011829;28;20072;-44
2021/06/23 13:48:52;;;;;;;1.30;0.30;;;;;;;;;;4999055;28;20084;-47
2021/06/23 13:51:19;;;;;;;1.67;0.30;;;;;;;;;;5011806;28;20536;-46
2021/06/23 13:53:46;;;;;;;5.68;0.40;;;;;;;;;;5009104;28;20038;-46
2021/06/23 13:56:13;;;;;;;4.25;0.50;;;;;;;;;;5010763;28;20113;-44
2021/06/23 13:58:39;;;;;;;5.93;0.50;;;;;;;;;;5012546;28;20046;-46
2021/06/23 14:01:06;;;;;;;2.75;0.40;;;;;;;;;;5009470;28;20101;-46
2021/06/23 14:03:33;;;;;;;8.40;0.52;;;;;;;;;;5011078;28;20042;-45
2021/06/23 14:06:01;;;;;;;5.93;0.55;;;;;;;;;;5009821;28;20041;-47
2021/06/23 14:08:28;;;;;;;9.45;0.63;;;;;;;;;;5008490;28;20060;-45
2021/06/23 14:10:55;;;;;;;4.20;0.50;;;;;;;;;;5012401;28;20085;-44
2021/06/23 14:13:21;;;;;;;8.00;0.70;;;;;;;;;;5009601;28;20470;-46
2021/06/23 14:15:48;;;;;;;6.35;1.05;;;;;;;;;;5012980;28;20053;-45
2021/06/23 14:18:15;;;;;;;8.35;0.60;;;;;;;;;;5009997;28;20066;-44
2021/06/23 14:20:42;;;;;;;10.93;0.93;;;;;;;;;;5008597;28;20047;-46
2021/06/23 14:23:09;;;;;;;6.20;0.52;;;;;;;;;;5012409;28;20060;-44
2021/06/23 14:25:36;;;;;;;11.27;0.90;;;;;;;;;;5008809;28;20113;-46
2021/06/23 14:28:03;;;;;;;4.63;0.50;;;;;;;;;;5010854;28;20108;-46
2021/06/23 14:30:30;;;;;;;4.40;0.52;;;;;;;;;;5008010;28;20034;-44
2021/06/23 14:32:57;;;;;;;4.88;0.90;;;;;;;;;;5010117;28;20108;-44
2021/06/23 14:35:25;;;;;;;6.40;0.77;;;;;;;;;;5011222;28;20072;-47
2021/06/23 14:37:52;;;;;;;5.28;1.20;;;;;;;;;;5009410;28;20037;-44
2021/06/23 14:40:21;;;;;;;4.68;0.50;;;;;;;;;;5010874;28;20693;-46
2021/06/23 14:42:48;;;;;;;4.55;0.45;;;;;;;;;;5009958;28;20115;-46
2021/06/23 14:45:16;;;;;;;1.70;0.40;;;;;;;;;;5009749;28;20050;-47
2021/06/23 14:47:43;;;;;;;5.40;0.35;;;;;;;;;;5012122;28;20518;-48
2021/06/23 14:50:10;;;;;;;2.15;0.50;;;;;;;;;;5007068;28;20076;-47
2021/06/23 14:52:37;;;;;;;6.22;0.50;;;;;;;;;;4993309;28;20072;-46
2021/06/23 14:55:04;;;;;;;2.28;0.50;;;;;;;;;;5010828;28;20121;-45
2021/06/23 14:57:30;;;;;;;7.55;0.47;;;;;;;;;;5010323;28;20088;-45
2021/06/23 14:59:57;;;;;;;4.57;0.75;;;;;;;;;;5011186;28;20494;-44
2021/06/23 15:02:24;;;;;;;7.53;0.57;;;;;;;;;;5010113;28;20177;-45
2021/06/23 15:04:56;;;;;;;4.35;0.60;;;;;;;;;;5008537;28;20487;-48
2021/06/23 15:07:24;;;;;;;2.83;0.52;;;;;;;;;;5011637;28;20046;-46
2021/06/23 15:09:50;;;;;;;6.15;0.80;;;;;;;;;;5008960;28;20128;-44